This is the latest recevied weather packets stored in our database for station/object OK5TVR-5. If no packets are shown the sender has not sent any weather packets the latest 10 day(s).
| Time | Temp. | Humidity | Pressure | Rain* | Wind** | Luminosity | Snow |
|---|---|---|---|---|---|---|---|
| 1777575736 | 8.89° C | 52% | 1023.1 hPa | 0 mm | - | - | - |
| 1777575736 | 8.89° C | 52% | 1023.1 hPa | 0 mm | - | - | - |
| 1777575736 | 8.89° C | 52% | 1023.1 hPa | 0 mm | - | - | - |
| 1777574834 | 10° C | 48% | 1023 hPa | 0 mm | - | - | - |
| 1777574833 | 10° C | 48% | 1023 hPa | 0 mm | - | - | - |
| 1777574833 | 10° C | 48% | 1023 hPa | 0 mm | - | - | - |
| 1777573933 | 10.56° C | 47% | 1021.9 hPa | 0 mm | - | - | - |
| 1777573932 | 10.56° C | 47% | 1021.9 hPa | 0 mm | - | - | - |
| 1777573932 | 10.56° C | 47% | 1021.9 hPa | 0 mm | - | - | - |
| 1777573032 | 11.11° C | 43% | 1021.8 hPa | 0 mm | - | - | - |
| 1777573032 | 11.11° C | - | - | 0 mm | - | - | - |
| 1777573032 | 11.11° C | 43% | 1021.8 hPa | 0 mm | - | - | - |
| 1777572132 | 12.22° C | 40% | 1021.6 hPa | 0 mm | - | - | - |
| 1777572131 | 12.22° C | 40% | 1021.6 hPa | 0 mm | - | - | - |
| 1777572131 | 12.22° C | 40% | 1021.6 hPa | 0 mm | - | - | - |
| 1777571230 | 12.78° C | - | - | 0 mm | - | - | - |
| 1777571230 | 12.78° C | 39% | 1021.5 hPa | 0 mm | - | - | - |
| 1777571230 | 12.78° C | 39% | 1021.5 hPa | 0 mm | - | - | - |
| 1777571230 | 12.78° C | 39% | 1021.5 hPa | 0 mm | - | - | - |
| 1777570328 | 13.89° C | 33% | 1021.4 hPa | 0 mm | - | - | - |
| 1777570328 | 13.89° C | 33% | 1021.4 hPa | 0 mm | - | - | - |
| 1777569428 | 15.56° C | 33% | 1021.2 hPa | 0 mm | - | - | - |
| 1777568526 | 16.11° C | 30% | 1021.2 hPa | 0 mm | - | - | - |
| 1777568526 | 16.11° C | 30% | 1021.2 hPa | 0 mm | - | - | - |
| 1777567624 | 16.11° C | 31% | 1020.1 hPa | 0 mm | - | - | - |
* Rain latest hour (hover to see other rain measurements)
** Current wind speed in m/s (hover to see current wind gust speed)